Time;durP1;ratioP1;P1;durP2;ratioP2;P2;SDS_P1;SDS_P2;PMS_P1;PMS_P2;Temp;Humidity;BMP_temperature;BMP_pressure;BME280_temperature;BME280_humidity;BME280_pressure;Samples;Min_cycle;Max_cycle;Signal;HPM_P1;HPM_P2
2023/05/02 00:00:00;;;;;;;13.30;3.17;;;;;;;12.98;48.99;101344.94;5072438;28;20090;-86
2023/05/02 00:02:27;;;;;;;8.90;2.47;;;;;;;12.93;48.83;101339.06;5072288;28;20027;-86
2023/05/02 00:04:52;;;;;;;10.82;2.72;;;;;;;12.81;49.64;101331.09;5071854;28;20040;-87
2023/05/02 00:07:17;;;;;;;7.05;2.10;;;;;;;12.69;49.60;101319.38;5070866;28;20525;-87
2023/05/02 00:09:43;;;;;;;67.18;7.18;;;;;;;12.70;49.28;101341.84;5072379;28;20056;-86
2023/05/02 00:12:08;;;;;;;14.82;3.05;;;;;;;12.73;49.38;101338.91;5070764;28;20054;-84
2023/05/02 00:14:34;;;;;;;6.95;3.13;;;;;;;12.63;49.22;101333.38;5071938;28;20039;-84
2023/05/02 00:16:59;;;;;;;8.30;2.50;;;;;;;12.70;49.29;101331.91;5072192;28;20020;-84
2023/05/02 00:19:25;;;;;;;10.13;2.42;;;;;;;12.77;49.20;101346.66;5070673;28;20411;-86
2023/05/02 00:21:50;;;;;;;12.38;2.53;;;;;;;12.71;48.87;101344.44;5072095;28;20399;-84
2023/05/02 00:24:19;;;;;;;10.27;2.65;;;;;;;12.75;49.15;101350.47;5072073;28;20071;-86
2023/05/02 00:26:45;;;;;;;6.25;2.38;;;;;;;12.70;49.06;101348.09;5072312;28;20142;-85
2023/05/02 00:29:10;;;;;;;4.72;2.17;;;;;;;12.64;48.93;101347.72;5073325;28;20032;-85
2023/05/02 00:31:35;;;;;;;5.30;2.20;;;;;;;12.55;48.95;101350.19;5079923;28;20113;-83
2023/05/02 00:34:01;;;;;;;19.50;2.42;;;;;;;12.52;48.41;101354.94;5094269;28;20033;-84
2023/05/02 00:36:27;;;;;;;5.80;2.15;;;;;;;12.56;48.27;101348.34;5089257;28;20044;-85
2023/05/02 00:38:52;;;;;;;9.30;2.25;;;;;;;12.61;48.10;101351.53;5074735;28;20028;-87
2023/05/02 00:41:17;;;;;;;10.80;2.97;;;;;;;12.64;48.46;101362.09;5072510;28;20043;-85
2023/05/02 00:43:43;;;;;;;19.20;3.22;;;;;;;12.52;47.81;101339.63;5077963;28;20027;-82
2023/05/02 00:46:11;;;;;;;11.30;2.20;;;;;;;12.68;47.84;101352.78;5082776;28;20044;-83
2023/05/02 00:48:36;;;;;;;11.80;2.15;;;;;;;12.80;47.79;101354.50;5077203;28;20032;-86
2023/05/02 00:51:07;;;;;;;21.10;2.70;;;;;;;12.77;47.63;101354.75;5071934;28;20021;-85
2023/05/02 00:53:34;;;;;;;22.83;3.42;;;;;;;12.65;47.83;101339.53;5074641;28;20028;-84
2023/05/02 00:56:01;;;;;;;17.55;4.53;;;;;;;12.81;48.06;101356.22;5072308;28;20051;-85
2023/05/02 00:58:27;;;;;;;10.70;2.83;;;;;;;12.81;47.59;101345.41;5070948;28;20056;-86
2023/05/02 01:01:07;;;;;;;18.75;4.40;;;;;;;12.82;47.49;101340.88;5070909;28;20033;-85
2023/05/02 01:03:40;;;;;;;9.18;2.90;;;;;;;12.81;47.41;101345.41;5071135;28;20029;-85
2023/05/02 01:06:40;;;;;;;7.95;3.08;;;;;;;12.95;47.32;101347.91;5090971;28;20048;-83
2023/05/02 01:09:24;;;;;;;8.00;2.83;;;;;;;12.86;47.58;101348.63;5081293;28;20094;-85
2023/05/02 01:12:03;;;;;;;7.82;2.58;;;;;;;12.81;48.06;101339.19;5083949;28;20111;-87
2023/05/02 01:14:33;;;;;;;5.18;2.70;;;;;;;12.83;47.72;101335.38;5071205;28;20024;-87
2023/05/02 01:17:04;;;;;;;10.98;2.67;;;;;;;12.78;47.93;101342.94;5070329;28;20032;-85
2023/05/02 01:19:37;;;;;;;4.95;2.15;;;;;;;12.77;46.95;101343.09;5070780;28;20549;-85
2023/05/02 01:22:07;;;;;;;8.82;2.55;;;;;;;12.82;47.29;101341.75;5070729;28;20029;-87
2023/05/02 01:25:11;;;;;;;3.35;2.17;;;;;;;12.77;47.77;101343.09;5075339;28;20025;-83
2023/05/02 01:27:48;;;;;;;7.05;2.17;;;;;;;12.68;48.03;101354.63;5069376;28;20110;-83
2023/05/02 01:30:16;;;;;;;10.48;4.25;;;;;;;12.63;47.92;101338.78;5060146;28;20037;-86
2023/05/02 01:32:45;;;;;;;5.28;1.98;;;;;;;12.67;47.67;101351.06;5057706;28;20040;-83
2023/05/02 01:35:14;;;;;;;7.10;2.72;;;;;;;12.72;47.62;101351.53;5055935;28;20566;-84
2023/05/02 01:37:43;;;;;;;4.68;2.47;;;;;;;12.71;47.43;101336.34;5052281;28;20521;-84
2023/05/02 01:40:10;;;;;;;9.13;2.67;;;;;;;12.72;48.01;101329.94;5050745;28;20566;-87
2023/05/02 01:42:38;;;;;;;5.68;2.42;;;;;;;12.80;47.75;101343.72;5047437;28;20098;-85
2023/05/02 01:45:06;;;;;;;7.00;2.22;;;;;;;12.78;47.97;101339.41;5047345;28;20049;-86
2023/05/02 01:47:34;;;;;;;6.60;2.30;;;;;;;12.86;47.65;101336.97;5047697;28;20064;-85
2023/05/02 01:50:02;;;;;;;7.28;2.50;;;;;;;12.89;47.40;101348.38;5048070;28;20450;-85
2023/05/02 01:52:29;;;;;;;7.50;2.33;;;;;;;12.72;47.40;101324.53;5030473;28;20079;-86
2023/05/02 01:54:58;;;;;;;4.40;2.70;;;;;;;12.75;47.44;101335.09;5047369;28;20110;-85
2023/05/02 01:57:24;;;;;;;7.07;3.65;;;;;;;12.77;47.34;101341.25;5047641;28;20037;-85
2023/05/02 01:59:50;;;;;;;16.08;3.42;;;;;;;12.86;47.55;101335.13;5048048;28;20032;-88
2023/05/02 02:02:16;;;;;;;6.43;3.50;;;;;;;12.86;47.78;101337.81;5047681;28;20470;-87
2023/05/02 02:04:44;;;;;;;9.23;3.45;;;;;;;12.87;47.62;101330.59;5059908;28;20064;-86
2023/05/02 02:07:12;;;;;;;8.32;3.92;;;;;;;12.87;47.74;101334.13;5069689;28;20063;-86
2023/05/02 02:09:38;;;;;;;13.23;3.95;;;;;;;13.01;47.71;101341.13;5070167;28;20021;-86
2023/05/02 02:12:25;;;;;;;10.80;4.13;;;;;;;13.03;47.77;101348.13;5070532;28;20051;-87
2023/05/02 02:15:10;;;;;;;8.13;3.95;;;;;;;13.04;47.56;101347.16;5070340;28;20843;-85
2023/05/02 02:17:39;;;;;;;13.05;4.65;;;;;;;12.99;47.09;101341.28;5070836;28;20028;-85
2023/05/02 02:20:08;;;;;;;7.95;3.78;;;;;;;12.89;46.92;101342.97;5069935;28;20475;-85
2023/05/02 02:22:37;;;;;;;11.10;3.17;;;;;;;12.90;46.80;101347.38;5070096;28;20040;-85
2023/05/02 02:25:06;;;;;;;13.27;3.53;;;;;;;12.81;47.11;101337.31;5086123;28;20028;-84
2023/05/02 02:27:32;;;;;;;8.10;3.25;;;;;;;12.75;47.26;101348.59;5080868;28;20051;-86
2023/05/02 02:29:58;;;;;;;18.85;3.72;;;;;;;12.77;46.61;101354.75;5083063;28;20025;-84
2023/05/02 02:32:23;;;;;;;7.13;3.25;;;;;;;12.69;47.36;101359.88;5075129;28;20037;-87
2023/05/02 02:34:50;;;;;;;14.73;3.10;;;;;;;12.72;47.15;101340.75;5070210;28;20029;-86
2023/05/02 02:37:18;;;;;;;9.48;3.58;;;;;;;12.75;46.50;101361.25;5070035;28;20094;-85
2023/05/02 02:39:58;;;;;;;5.05;2.83;;;;;;;12.75;46.22;101359.41;5070433;28;20021;-85
2023/05/02 02:42:41;;;;;;;11.57;3.38;;;;;;;12.77;46.46;101359.28;5069442;28;20407;-88
2023/05/02 02:45:24;;;;;;;9.10;3.67;;;;;;;12.80;46.12;101361.75;5069215;28;20024;-87
2023/05/02 02:47:58;;;;;;;8.70;3.33;;;;;;;12.82;46.55;101351.69;5069623;28;20125;-87
2023/05/02 02:51:05;;;;;;;10.25;3.42;;;;;;;12.88;46.44;101357.44;5069636;28;20028;-86
2023/05/02 02:54:01;;;;;;;7.63;3.72;;;;;;;12.95;46.03;101352.44;5047076;28;20051;-85
2023/05/02 02:56:35;;;;;;;5.43;2.90;;;;;;;12.92;46.55;101358.94;5046497;28;20041;-85
2023/05/02 02:59:25;;;;;;;12.95;3.60;;;;;;;12.89;46.77;101367.28;5050642;28;20041;-87
2023/05/02 03:02:06;;;;;;;19.85;3.38;;;;;;;12.83;46.86;101365.06;5050675;28;20076;-87
2023/05/02 03:04:33;;;;;;;12.25;3.10;;;;;;;12.71;47.18;101362.47;5055595;28;20037;-87
2023/05/02 03:07:00;;;;;;;23.40;3.80;;;;;;;12.69;47.54;101370.69;5030309;28;20044;-83
2023/05/02 03:09:29;;;;;;;15.38;3.67;;;;;;;12.62;47.75;101374.84;5067128;28;20071;-84
2023/05/02 03:11:55;;;;;;;31.40;7.90;;;;;;;12.43;47.70;101361.06;5057820;28;20040;-86
2023/05/02 03:14:21;;;;;;;35.75;9.13;;;;;;;12.43;47.59;101371.84;5050656;28;20044;-86
2023/05/02 03:16:47;;;;;;;19.08;7.90;;;;;;;12.36;47.30;101373.28;5033782;28;20427;-85
2023/05/02 03:19:12;;;;;;;29.77;7.32;;;;;;;12.32;47.68;101377.22;5052019;28;20033;-86
2023/05/02 03:21:37;;;;;;;36.50;9.60;;;;;;;12.32;48.06;101374.53;5051598;28;20043;-85
2023/05/02 03:24:03;;;;;;;27.63;8.88;;;;;;;12.26;48.34;101369.59;5038247;28;20037;-83
2023/05/02 03:26:29;;;;;;;24.13;7.80;;;;;;;12.34;48.27;101378.81;5072339;28;20016;-83
2023/05/02 03:28:55;;;;;;;20.77;7.72;;;;;;;12.32;47.94;101382.63;5073531;28;20036;-86
2023/05/02 03:31:21;;;;;;;30.50;7.60;;;;;;;12.29;48.56;101393.66;5073812;28;20048;-85
2023/05/02 03:33:47;;;;;;;26.98;7.45;;;;;;;12.28;49.04;101400.00;5073723;28;20028;-85
2023/05/02 03:36:13;;;;;;;36.08;8.98;;;;;;;12.29;49.18;101402.56;5073443;28;20059;-87
2023/05/02 03:38:39;;;;;;;29.50;6.32;;;;;;;12.28;49.44;101400.88;5073866;28;20029;-87
2023/05/02 03:41:05;;;;;;;54.60;8.45;;;;;;;12.31;49.26;101403.34;5072488;28;20035;-85
2023/05/02 03:43:30;;;;;;;70.55;9.73;;;;;;;12.30;49.19;101408.84;5073873;28;20507;-85
2023/05/02 03:45:56;;;;;;;48.15;6.72;;;;;;;12.26;49.49;101404.66;5073999;28;20025;-86
2023/05/02 03:48:21;;;;;;;50.33;7.38;;;;;;;12.33;49.20;101414.84;5076550;28;20062;-85
2023/05/02 03:50:48;;;;;;;33.97;7.00;;;;;;;12.30;49.28;101420.50;5076168;28;20039;-85
2023/05/02 03:53:15;;;;;;;30.10;7.38;;;;;;;12.29;49.72;101417.91;5074314;28;20040;-86
2023/05/02 03:55:41;;;;;;;32.40;7.80;;;;;;;12.29;50.04;101426.03;5073440;28;20119;-88
2023/05/02 03:58:07;;;;;;;42.58;7.72;;;;;;;12.30;50.19;101433.09;5073397;28;20444;-84
2023/05/02 04:00:33;;;;;;;25.73;6.35;;;;;;;12.33;50.01;101424.78;5073123;28;20036;-84
2023/05/02 04:03:01;;;;;;;39.28;8.45;;;;;;;12.34;50.24;101448.09;5071752;28;20347;-86
2023/05/02 04:05:27;;;;;;;37.70;9.38;;;;;;;12.30;50.37;101435.81;5074131;28;20074;-84
2023/05/02 04:07:53;;;;;;;56.55;9.63;;;;;;;12.22;50.71;101424.75;5071946;28;20032;-84
2023/05/02 04:10:18;;;;;;;57.45;8.75;;;;;;;12.39;50.02;101441.38;5072358;28;20494;-87
2023/05/02 04:12:44;;;;;;;29.33;7.95;;;;;;;12.42;49.97;101442.97;5074457;28;20394;-86
2023/05/02 04:15:10;;;;;;;66.93;10.05;;;;;;;12.46;50.56;101436.38;5071999;28;20025;-81
2023/05/02 04:17:36;;;;;;;131.95;16.35;;;;;;;12.43;50.89;101429.38;5072241;28;20031;-80
2023/05/02 04:20:02;;;;;;;95.13;12.23;;;;;;;12.47;50.67;101427.31;5073677;28;20020;-87
2023/05/02 04:22:27;;;;;;;73.07;14.77;;;;;;;12.64;50.64;101434.09;5094801;28;20020;-89
2023/05/02 04:24:53;;;;;;;61.00;10.25;;;;;;;12.59;50.83;101425.50;5093042;28;20066;-88
2023/05/02 04:27:18;;;;;;;55.88;9.50;;;;;;;12.75;49.86;101431.44;5088554;28;20028;-87
2023/05/02 04:29:47;;;;;;;65.43;12.00;;;;;;;12.87;50.12;101436.72;5084252;28;20086;-88
2023/05/02 04:32:12;;;;;;;57.13;12.02;;;;;;;12.95;50.15;101422.63;5092607;28;20028;-85
2023/05/02 04:34:38;;;;;;;72.38;13.32;;;;;;;13.03;49.81;101414.78;5092371;28;20077;-89
2023/05/02 04:37:03;;;;;;;72.03;13.80;;;;;;;13.21;49.58;101428.72;5086999;28;20056;-84
2023/05/02 04:39:29;;;;;;;107.32;14.90;;;;;;;13.34;49.48;101429.44;5084970;28;20017;-82
2023/05/02 04:41:54;;;;;;;65.25;11.63;;;;;;;13.44;49.63;101419.63;5078221;28;20033;-83
2023/05/02 04:44:20;;;;;;;57.40;9.55;;;;;;;13.57;49.31;101425.75;5075483;28;20024;-84
2023/05/02 04:46:45;;;;;;;81.82;12.43;;;;;;;13.69;48.98;101422.06;5070893;28;20043;-83
2023/05/02 04:49:11;;;;;;;54.45;11.05;;;;;;;13.79;48.67;101425.69;5070176;28;20028;-82
2023/05/02 04:51:36;;;;;;;41.83;10.05;;;;;;;13.93;48.31;101414.63;5072629;28;20021;-81
2023/05/02 04:54:01;;;;;;;75.15;13.65;;;;;;;14.19;48.00;101434.94;5071337;28;20024;-85
2023/05/02 04:56:27;;;;;;;69.85;12.30;;;;;;;14.33;47.95;101435.66;5070439;28;20105;-82
2023/05/02 04:58:52;;;;;;;54.38;12.48;;;;;;;14.42;47.68;101430.34;5071140;28;20486;-81
2023/05/02 05:01:18;;;;;;;58.92;12.95;;;;;;;14.54;47.87;101433.84;5071586;28;20558;-80
2023/05/02 05:03:43;;;;;;;50.75;14.60;;;;;;;14.66;47.54;101443.63;5074641;28;20064;-80
2023/05/02 05:06:09;;;;;;;68.97;14.80;;;;;;;14.80;47.62;101435.16;5079259;28;20037;-81
2023/05/02 05:08:34;;;;;;;55.65;14.30;;;;;;;14.86;47.38;101434.63;5077552;28;20031;-81
2023/05/02 05:11:00;;;;;;;59.25;17.15;;;;;;;15.07;46.99;101442.78;5070565;28;20032;-80
2023/05/02 05:13:27;;;;;;;62.13;16.17;;;;;;;15.15;47.07;101454.66;5068222;28;20032;-81
2023/05/02 05:15:52;;;;;;;58.08;19.42;;;;;;;15.17;46.87;101444.53;5066528;28;20045;-81
2023/05/02 05:18:18;;;;;;;78.97;24.92;;;;;;;15.17;46.90;101439.13;5070577;28;20512;-82
2023/05/02 05:20:44;;;;;;;88.53;26.33;;;;;;;15.36;46.62;101448.34;5072078;28;20099;-80
2023/05/02 05:23:09;;;;;;;67.10;24.60;;;;;;;15.50;46.37;101454.31;5072417;28;20020;-81
2023/05/02 05:25:34;;;;;;;76.07;23.10;;;;;;;15.64;46.03;101458.47;5068817;28;20033;-81
2023/05/02 05:28:00;;;;;;;60.75;24.85;;;;;;;15.76;46.02;101463.66;5069244;28;20028;-81
2023/05/02 05:30:25;;;;;;;56.58;25.88;;;;;;;15.81;45.76;101465.94;5068844;28;20025;-81
2023/05/02 05:32:51;;;;;;;106.93;32.30;;;;;;;15.92;45.65;101468.56;5068982;28;20043;-82
2023/05/02 05:35:17;;;;;;;54.78;23.95;;;;;;;15.93;45.23;101469.44;5068156;28;20033;-81
2023/05/02 05:37:43;;;;;;;70.03;25.15;;;;;;;16.05;44.79;101463.75;5068755;28;20105;-81
2023/05/02 05:40:10;;;;;;;63.17;23.50;;;;;;;16.20;44.30;101472.34;5068474;28;20044;-82
2023/05/02 05:42:35;;;;;;;62.08;23.30;;;;;;;16.31;43.89;101470.34;5068441;28;20411;-82
2023/05/02 05:45:00;;;;;;;80.57;26.90;;;;;;;16.39;43.42;101471.53;5068227;28;20032;-80
2023/05/02 05:47:26;;;;;;;82.30;27.58;;;;;;;16.52;43.47;101474.78;5068501;28;20032;-81
2023/05/02 05:49:55;;;;;;;90.93;27.25;;;;;;;16.64;43.18;101471.84;5068836;28;20035;-82
2023/05/02 05:52:21;;;;;;;76.85;24.77;;;;;;;16.79;43.14;101477.69;5069310;28;20131;-82
2023/05/02 05:54:46;;;;;;;79.82;25.13;;;;;;;16.88;42.58;101479.53;5068875;28;20035;-81
2023/05/02 05:57:12;;;;;;;66.25;22.63;;;;;;;17.04;42.36;101474.38;5068638;28;20029;-82
2023/05/02 05:59:37;;;;;;;58.67;23.38;;;;;;;17.22;42.08;101472.59;5068623;28;20036;-81
2023/05/02 06:02:03;;;;;;;77.97;20.77;;;;;;;17.36;42.38;101474.00;5068708;28;20025;-82
2023/05/02 06:04:29;;;;;;;55.00;15.02;;;;;;;17.36;42.66;101474.88;5068619;28;20036;-81
2023/05/02 06:06:54;;;;;;;47.50;10.88;;;;;;;17.38;42.40;101478.28;5068680;28;20033;-81
2023/05/02 06:09:20;;;;;;;60.10;13.68;;;;;;;17.29;42.73;101462.88;5067788;28;20483;-81
2023/05/02 06:11:45;;;;;;;32.00;11.07;;;;;;;17.39;43.26;101481.88;5069421;28;20066;-82
2023/05/02 06:14:11;;;;;;;30.00;11.38;;;;;;;17.40;44.43;101469.97;5068441;28;20033;-81
2023/05/02 06:16:36;;;;;;;33.58;13.15;;;;;;;17.58;44.94;101472.81;5075228;28;20016;-82
2023/05/02 06:19:01;;;;;;;28.98;12.27;;;;;;;17.76;44.62;101465.59;5075580;28;20463;-82
2023/05/02 06:21:27;;;;;;;27.33;12.50;;;;;;;17.72;44.60;101467.75;5069866;28;20024;-82
2023/05/02 06:23:52;;;;;;;34.25;13.25;;;;;;;17.69;44.95;101467.19;5068485;28;20028;-81
2023/05/02 06:26:18;;;;;;;42.05;15.50;;;;;;;17.83;45.51;101478.41;5067775;28;20480;-81
2023/05/02 06:28:43;;;;;;;64.25;17.08;;;;;;;17.79;45.79;101470.72;5068619;28;20025;-81
2023/05/02 06:31:09;;;;;;;54.38;14.85;;;;;;;17.86;45.26;101466.38;5069898;28;20112;-81
2023/05/02 06:33:35;;;;;;;40.10;14.02;;;;;;;17.90;44.44;101473.22;5072266;28;20028;-82
2023/05/02 06:36:01;;;;;;;35.05;14.68;;;;;;;17.96;45.53;101494.41;5070488;28;20044;-83
2023/05/02 06:38:27;;;;;;;38.13;18.00;;;;;;;17.89;46.94;101488.69;5071749;28;20079;-83
2023/05/02 06:40:52;;;;;;;34.85;17.73;;;;;;;17.87;47.37;101489.88;5072020;28;20060;-82
2023/05/02 06:43:18;;;;;;;48.08;18.25;;;;;;;17.94;47.69;101490.97;5072138;28;20026;-83
2023/05/02 06:45:44;;;;;;;40.55;17.55;;;;;;;17.81;48.00;101460.53;5072072;28;20032;-84
2023/05/02 06:48:10;;;;;;;51.88;17.65;;;;;;;17.86;48.33;101499.88;5072003;28;20082;-81
2023/05/02 06:50:36;;;;;;;40.92;15.95;;;;;;;17.79;47.02;101503.38;5070470;28;20403;-82
2023/05/02 06:53:02;;;;;;;30.58;13.38;;;;;;;17.83;46.72;101505.63;5072335;28;20025;-81
2023/05/02 06:55:28;;;;;;;33.10;13.68;;;;;;;17.89;46.58;101505.03;5070473;28;20502;-81
2023/05/02 06:57:54;;;;;;;31.95;12.32;;;;;;;17.90;45.65;101505.88;5071815;28;20108;-82
2023/05/02 07:00:20;;;;;;;25.70;10.68;;;;;;;17.81;44.64;101506.78;5074132;28;20032;-83
2023/05/02 07:02:46;;;;;;;24.60;11.77;;;;;;;17.90;44.48;101506.75;5085354;28;20038;-81
2023/05/02 07:05:14;;;;;;;25.55;10.80;;;;;;;17.86;43.89;101507.19;5079621;28;20025;-82
2023/05/02 07:07:41;;;;;;;32.70;13.57;;;;;;;17.89;45.90;101509.63;5073005;28;20052;-82
2023/05/02 07:10:07;;;;;;;40.38;16.65;;;;;;;17.74;47.22;101517.41;5072915;28;20029;-81
2023/05/02 07:12:32;;;;;;;55.35;16.40;;;;;;;17.84;46.68;101523.69;5074942;28;20518;-81
2023/05/02 07:14:57;;;;;;;32.40;14.32;;;;;;;17.66;47.14;101513.72;5079999;28;20162;-82
2023/05/02 07:17:24;;;;;;;26.80;14.50;;;;;;;17.66;47.42;101513.72;5077109;28;20036;-82
2023/05/02 07:19:50;;;;;;;72.45;15.25;;;;;;;17.69;45.88;101530.63;5072570;28;20147;-81
2023/05/02 07:22:15;;;;;;;25.17;9.95;;;;;;;17.74;43.90;101531.03;5072701;28;20495;-82
2023/05/02 07:24:41;;;;;;;14.10;8.60;;;;;;;17.66;42.38;101521.91;5072161;28;20036;-81
2023/05/02 07:27:11;;;;;;;39.08;11.23;;;;;;;17.80;43.28;101532.28;5071913;28;20020;-81
2023/05/02 07:29:37;;;;;;;29.63;10.57;;;;;;;17.77;43.19;101529.88;5071940;28;20089;-82
2023/05/02 07:32:03;;;;;;;16.92;9.18;;;;;;;17.70;42.62;101517.88;5072434;28;20041;-83
2023/05/02 07:34:29;;;;;;;26.73;8.73;;;;;;;17.79;43.10;101541.47;5072145;28;20037;-83
2023/05/02 07:36:54;;;;;;;14.98;7.18;;;;;;;17.90;42.44;101544.88;5071465;28;20171;-82
2023/05/02 07:39:20;;;;;;;27.02;7.97;;;;;;;17.98;42.14;101544.09;5071998;28;20044;-82
2023/05/02 07:41:46;;;;;;;18.95;6.10;;;;;;;18.01;41.79;101538.34;5071684;28;20128;-81
2023/05/02 07:44:11;;;;;;;25.63;5.80;;;;;;;17.88;41.34;101535.13;5071649;28;20075;-83
2023/05/02 07:46:37;;;;;;;22.55;7.47;;;;;;;18.13;41.58;101545.34;5071973;28;20837;-81
2023/05/02 07:49:02;;;;;;;33.47;5.80;;;;;;;18.26;40.55;101548.53;5071862;28;20464;-82
2023/05/02 07:51:28;;;;;;;25.55;6.35;;;;;;;18.35;39.59;101550.34;5072100;28;20403;-82
2023/05/02 07:53:57;;;;;;;26.40;7.85;;;;;;;18.17;38.92;101551.31;5071477;28;20033;-81
2023/05/02 07:56:25;;;;;;;38.45;5.75;;;;;;;18.11;38.30;101547.34;5071795;28;20025;-82
2023/05/02 07:58:51;;;;;;;12.23;4.10;;;;;;;18.27;38.81;101553.00;5071582;28;20025;-81
2023/05/02 08:01:17;;;;;;;25.45;5.63;;;;;;;18.33;38.09;101548.78;5071411;28;20033;-81
2023/05/02 08:03:43;;;;;;;16.83;5.43;;;;;;;18.38;37.95;101547.31;5070206;28;20033;-81
2023/05/02 08:06:09;;;;;;;16.40;4.57;;;;;;;18.47;37.04;101549.13;5072835;28;20025;-81
2023/05/02 08:08:34;;;;;;;28.15;4.38;;;;;;;18.53;36.58;101552.31;5071398;28;20049;-81
2023/05/02 08:11:00;;;;;;;13.40;3.28;;;;;;;18.50;36.35;101530.81;5075824;28;20025;-82
2023/05/02 08:13:26;;;;;;;25.38;4.15;;;;;;;18.53;35.45;101546.84;5075029;28;20403;-83
2023/05/02 08:15:56;;;;;;;5.13;2.80;;;;;;;18.47;34.61;101543.69;5073838;28;20021;-84
2023/05/02 08:18:25;;;;;;;25.38;3.75;;;;;;;18.52;35.21;101534.22;5068137;28;20525;-82
2023/05/02 08:20:50;;;;;;;21.65;3.67;;;;;;;18.68;35.53;101546.16;5069930;28;20060;-79
2023/05/02 08:23:16;;;;;;;35.38;5.70;;;;;;;18.81;35.61;101553.94;5070616;28;20467;-81
2023/05/02 08:25:41;;;;;;;26.67;5.10;;;;;;;18.99;35.72;101558.38;5068722;28;20024;-82
2023/05/02 08:28:07;;;;;;;6.60;3.05;;;;;;;18.99;35.37;101554.78;5070602;28;20036;-84
2023/05/02 08:30:32;;;;;;;21.65;4.40;;;;;;;19.05;34.98;101543.25;5069719;28;20024;-81
2023/05/02 08:32:58;;;;;;;21.15;3.75;;;;;;;19.12;35.33;101552.53;5068570;28;20028;-82
2023/05/02 08:35:23;;;;;;;25.83;4.80;;;;;;;19.17;35.35;101549.34;5069883;28;20062;-83
2023/05/02 08:37:49;;;;;;;16.70;4.05;;;;;;;19.23;34.35;101563.22;5072201;28;20039;-84
2023/05/02 08:40:16;;;;;;;13.18;3.90;;;;;;;19.18;35.10;101549.16;5069809;28;20028;-82
2023/05/02 08:42:45;;;;;;;7.68;3.45;;;;;;;19.26;34.92;101542.94;5069726;28;20377;-81
2023/05/02 08:45:13;;;;;;;34.83;5.22;;;;;;;19.38;34.86;101549.84;5069751;28;20407;-82
2023/05/02 08:47:41;;;;;;;11.95;3.25;;;;;;;19.40;32.52;101543.25;5069688;28;20028;-82
2023/05/02 08:50:09;;;;;;;5.13;2.00;;;;;;;19.26;31.03;101551.97;5069451;28;20036;-82
2023/05/02 08:52:35;;;;;;;14.32;3.65;;;;;;;19.11;32.50;101558.16;5069628;28;20028;-80
2023/05/02 08:55:02;;;;;;;13.25;3.47;;;;;;;19.02;33.42;101549.03;5067380;28;20028;-82
2023/05/02 08:57:29;;;;;;;14.10;4.32;;;;;;;19.19;33.85;101550.03;5069238;28;20028;-83
2023/05/02 08:59:55;;;;;;;12.35;3.22;;;;;;;19.20;33.08;101546.28;5070900;28;20017;-82
2023/05/02 09:02:47;;;;;;;18.00;2.92;;;;;;;19.15;31.96;101549.47;5070358;28;20025;-83
2023/05/02 09:05:18;;;;;;;9.40;2.88;;;;;;;18.97;32.75;101545.91;5069841;28;20402;-81
2023/05/02 09:07:46;;;;;;;14.07;2.85;;;;;;;18.84;32.52;101537.28;5071438;28;20032;-80
2023/05/02 09:10:12;;;;;;;19.83;3.50;;;;;;;19.02;32.75;101554.47;5074370;28;20032;-82
2023/05/02 09:12:38;;;;;;;8.38;2.75;;;;;;;19.10;32.67;101550.97;5075535;28;20028;-82
2023/05/02 09:15:15;;;;;;;15.05;2.78;;;;;;;19.20;32.82;101549.88;5074389;28;20039;-81
2023/05/02 09:17:45;;;;;;;14.50;3.97;;;;;;;19.20;33.66;101541.72;5069945;28;20028;-81
2023/05/02 09:20:12;;;;;;;12.73;3.50;;;;;;;19.33;33.99;101553.03;5070419;28;20043;-81
2023/05/02 09:22:38;;;;;;;10.05;3.40;;;;;;;19.28;35.14;101552.66;5070339;28;20017;-80
2023/05/02 09:25:07;;;;;;;11.90;3.58;;;;;;;19.26;34.84;101548.41;5070687;28;20032;-80
2023/05/02 09:27:50;;;;;;;6.55;2.60;;;;;;;19.12;35.37;101535.31;5070250;28;20028;-80
2023/05/02 09:30:23;;;;;;;7.78;3.08;;;;;;;19.35;34.38;101551.03;5070235;28;20119;-82
2023/05/02 09:32:50;;;;;;;9.82;2.95;;;;;;;19.34;34.67;101551.16;5070404;28;20054;-82
2023/05/02 09:35:22;;;;;;;12.25;2.65;;;;;;;19.27;34.19;101553.66;5069440;28;20031;-82
2023/05/02 09:37:55;;;;;;;12.82;3.38;;;;;;;19.27;35.48;101553.66;5068803;28;20027;-81
2023/05/02 09:40:22;;;;;;;16.55;3.40;;;;;;;19.15;34.88;101538.56;5069440;28;20060;-82
2023/05/02 09:42:47;;;;;;;34.63;3.47;;;;;;;19.24;36.17;101556.72;5069340;28;20454;-81
2023/05/02 09:45:23;;;;;;;9.30;2.00;;;;;;;19.10;35.16;101546.38;5068764;28;20032;-83
2023/05/02 09:47:50;;;;;;;10.68;2.83;;;;;;;19.12;34.63;101552.53;5069380;28;20570;-82
2023/05/02 09:50:44;;;;;;;15.48;3.25;;;;;;;19.24;34.46;101556.72;5068982;28;20060;-82
2023/05/02 09:53:10;;;;;;;9.73;3.30;;;;;;;19.32;35.13;101554.06;5046429;28;20041;-83
2023/05/02 09:55:36;;;;;;;10.73;2.90;;;;;;;19.40;35.14;101539.66;5046732;28;20630;-82
2023/05/02 09:58:02;;;;;;;6.97;2.90;;;;;;;19.32;34.45;101545.88;5047328;28;20413;-82
2023/05/02 10:00:44;;;;;;;13.95;3.83;;;;;;;19.17;35.61;101543.88;5048083;28;20033;-83
2023/05/02 10:03:14;;;;;;;13.27;3.60;;;;;;;19.29;37.42;101545.34;5046867;28;20044;-83
2023/05/02 10:05:40;;;;;;;25.48;4.53;;;;;;;19.23;38.04;101532.34;5053415;28;20043;-81
2023/05/02 10:08:07;;;;;;;21.27;4.28;;;;;;;19.39;36.21;101540.63;5057853;28;20041;-82
2023/05/02 10:10:36;;;;;;;17.33;4.10;;;;;;;19.46;38.24;101542.59;5051395;28;20748;-82
2023/05/02 10:13:04;;;;;;;9.90;4.85;;;;;;;19.61;39.23;101547.47;5050764;28;20578;-82
2023/05/02 10:15:31;;;;;;;10.57;4.32;;;;;;;19.72;38.42;101533.56;5050404;28;20037;-82
2023/05/02 10:18:01;;;;;;;6.18;2.90;;;;;;;19.88;36.16;101537.22;5050490;28;20036;-81
2023/05/02 10:20:36;;;;;;;23.42;5.10;;;;;;;20.04;37.50;101542.75;5050518;28;20071;-83
2023/05/02 10:23:03;;;;;;;17.70;3.28;;;;;;;20.04;34.37;101530.97;5050906;28;20045;-84
2023/05/02 10:25:29;;;;;;;12.48;3.58;;;;;;;19.97;36.09;101538.09;5050728;28;20074;-82
2023/05/02 10:27:58;;;;;;;12.35;3.42;;;;;;;19.94;37.14;101546.63;5050670;28;20141;-82
2023/05/02 10:30:25;;;;;;;28.30;5.55;;;;;;;20.01;35.30;101532.16;5069640;28;20124;-81
2023/05/02 10:32:53;;;;;;;10.90;3.47;;;;;;;20.20;36.36;101552.06;5072715;28;20162;-82
2023/05/02 10:35:19;;;;;;;25.80;5.28;;;;;;;20.05;37.66;101540.91;5072668;28;20024;-82
2023/05/02 10:37:46;;;;;;;6.80;3.75;;;;;;;20.17;37.23;101550.50;5072461;28;20604;-81
2023/05/02 10:40:12;;;;;;;10.95;3.90;;;;;;;19.78;36.74;101532.91;5072570;28;20054;-81
2023/05/02 10:42:41;;;;;;;59.83;6.53;;;;;;;19.95;37.29;101537.44;5072814;28;20521;-82
2023/05/02 10:45:33;;;;;;;14.95;4.05;;;;;;;20.23;35.45;101536.19;5072635;28;20028;-82
2023/05/02 10:48:19;;;;;;;23.65;4.72;;;;;;;20.40;35.50;101543.44;5050102;28;20045;-83
2023/05/02 10:50:47;;;;;;;8.57;3.17;;;;;;;20.41;33.79;101539.69;5049959;28;20055;-81
2023/05/02 10:53:39;;;;;;;17.60;4.15;;;;;;;20.52;33.68;101547.56;5050533;28;20044;-81
2023/05/02 10:56:19;;;;;;;25.75;13.70;;;;;;;20.58;34.46;101544.16;5050642;28;20094;-82
2023/05/02 10:58:49;;;;;;;40.03;6.32;;;;;;;20.69;34.48;101553.09;5050143;28;20037;-83
2023/05/02 11:01:27;;;;;;;10.27;2.58;;;;;;;20.88;33.80;101552.78;5051786;28;20039;-82
2023/05/02 11:04:13;;;;;;;8.00;3.30;;;;;;;20.95;33.44;101537.38;5057942;28;20407;-82
2023/05/02 11:07:00;;;;;;;6.75;3.35;;;;;;;21.03;32.32;101534.69;5053737;28;20040;-82
2023/05/02 11:09:28;;;;;;;10.32;3.67;;;;;;;21.23;33.03;101540.69;5049283;28;20065;-82
2023/05/02 11:11:56;;;;;;;12.88;6.32;;;;;;;21.43;31.79;101531.09;5049427;28;20052;-82
2023/05/02 11:14:24;;;;;;;79.60;7.68;;;;;;;21.47;31.24;101540.66;5032694;28;20029;-82
2023/05/02 11:17:05;;;;;;;19.00;3.05;;;;;;;21.59;30.35;101540.13;5048703;28;20098;-82
2023/05/02 11:19:36;;;;;;;9.48;3.08;;;;;;;21.44;31.19;101533.66;5049293;28;20033;-82
2023/05/02 11:22:17;;;;;;;21.60;3.22;;;;;;;21.31;31.09;101530.59;5049559;28;20147;-81